Time;durP1;ratioP1;P1;durP2;ratioP2;P2;SDS_P1;SDS_P2;PMS_P1;PMS_P2;Temp;Humidity;BMP_temperature;BMP_pressure;BME280_temperature;BME280_humidity;BME280_pressure;Samples;Min_cycle;Max_cycle;Signal;HPM_P1;HPM_P2
2022/08/30 00:01:23;;;;;;;10.48;4.63;;;;;;;;;;5099407;28;19926;-68
2022/08/30 00:03:50;;;;;;;10.13;4.53;;;;;;;;;;5093401;28;20457;-68
2022/08/30 00:06:17;;;;;;;10.40;4.78;;;;;;;;;;5071502;28;20071;-69
2022/08/30 00:08:44;;;;;;;10.68;4.43;;;;;;;;;;5082533;28;20107;-68
2022/08/30 00:11:12;;;;;;;10.77;4.95;;;;;;;;;;5111842;28;20144;-69
2022/08/30 00:13:39;;;;;;;10.98;4.70;;;;;;;;;;5082171;28;20044;-68
2022/08/30 00:16:05;;;;;;;12.45;4.88;;;;;;;;;;5079017;28;20119;-68
2022/08/30 00:18:32;;;;;;;13.20;5.40;;;;;;;;;;5079653;28;20059;-68
2022/08/30 00:20:58;;;;;;;12.05;5.00;;;;;;;;;;5092156;28;20048;-68
2022/08/30 00:23:25;;;;;;;13.05;5.25;;;;;;;;;;5079342;28;20044;-68
2022/08/30 00:25:51;;;;;;;10.85;5.07;;;;;;;;;;5088848;28;20506;-68
2022/08/30 00:28:17;;;;;;;;;;;;;;;;;;5087519;28;20122;-68
2022/08/30 00:30:44;;;;;;;10.68;4.50;;;;;;;;;;5110986;28;19994;-68
2022/08/30 00:33:11;;;;;;;14.90;5.40;;;;;;;;;;5095734;28;20155;-73
2022/08/30 00:35:38;;;;;;;11.27;5.18;;;;;;;;;;5086349;28;20047;-68
2022/08/30 00:38:05;;;;;;;13.95;5.38;;;;;;;;;;5081025;28;20080;-68
2022/08/30 00:40:31;;;;;;;13.23;5.35;;;;;;;;;;5086753;28;20075;-69
2022/08/30 00:42:58;;;;;;;13.65;5.30;;;;;;;;;;5086288;28;20044;-68
2022/08/30 00:45:27;;;;;;;10.88;4.93;;;;;;;;;;5090977;28;20044;-68
2022/08/30 00:47:53;;;;;;;11.80;5.32;;;;;;;;;;5089694;28;20093;-68
2022/08/30 00:50:19;;;;;;;;;;;;;;;;;;5084092;28;20421;-69
2022/08/30 00:52:47;;;;;;;10.50;5.03;;;;;;;;;;5077995;28;19942;-68
2022/08/30 00:55:14;;;;;;;12.23;4.95;;;;;;;;;;5101227;28;20098;-73
2022/08/30 00:57:42;;;;;;;11.88;5.05;;;;;;;;;;5083796;28;20456;-68
2022/08/30 01:00:09;;;;;;;11.30;4.75;;;;;;;;;;5084464;28;20063;-68
2022/08/30 01:02:35;;;;;;;12.23;4.63;;;;;;;;;;5084864;28;20492;-68
2022/08/30 01:05:01;;;;;;;;;;;;;;;;;;5089728;28;20060;-67
2022/08/30 01:07:27;;;;;;;13.07;4.68;;;;;;;;;;5085468;28;20290;-68
2022/08/30 01:09:53;;;;;;;;;;;;;;;;;;5103339;28;20041;-68
2022/08/30 01:12:19;;;;;;;10.35;4.35;;;;;;;;;;5091580;28;19947;-68
2022/08/30 01:14:46;;;;;;;11.05;4.90;;;;;;;;;;5105254;28;20052;-68
2022/08/30 01:17:12;;;;;;;;;;;;;;;;;;5088417;28;20526;-69
2022/08/30 01:19:50;;;;;;;12.25;4.63;;;;;;;;;;5107109;28;19935;-68
2022/08/30 01:22:18;;;;;;;14.00;4.85;;;;;;;;;;5090294;28;20096;-73
2022/08/30 01:24:46;;;;;;;11.13;4.35;;;;;;;;;;5071238;28;20052;-68
2022/08/30 01:27:14;;;;;;;11.00;4.60;;;;;;;;;;5071615;28;20063;-69
2022/08/30 01:29:43;;;;;;;12.27;4.75;;;;;;;;;;5098703;28;20090;-68
2022/08/30 01:32:17;;;;;;;13.77;4.38;;;;;;;;;;5093204;28;20040;-73
2022/08/30 01:34:44;;;;;;;13.35;4.28;;;;;;;;;;5083432;28;20483;-68
2022/08/30 01:37:10;;;;;;;10.10;4.07;;;;;;;;;;5080292;28;20376;-68
2022/08/30 01:39:36;;;;;;;12.23;4.53;;;;;;;;;;5082849;28;20055;-68
2022/08/30 01:42:03;;;;;;;12.27;4.50;;;;;;;;;;5092265;28;20047;-68
2022/08/30 01:44:29;;;;;;;12.20;4.30;;;;;;;;;;5089453;28;20349;-68
2022/08/30 01:46:55;;;;;;;8.75;4.03;;;;;;;;;;5077855;28;20054;-68
2022/08/30 01:49:21;;;;;;;14.63;5.10;;;;;;;;;;5071678;28;20051;-73
2022/08/30 01:51:47;;;;;;;12.07;5.38;;;;;;;;;;5070940;28;20047;-75
2022/08/30 01:54:13;;;;;;;13.50;5.35;;;;;;;;;;5077076;28;20071;-68
2022/08/30 01:56:39;;;;;;;;;;;;;;;;;;5089139;28;20075;-69
2022/08/30 01:59:05;;;;;;;12.32;5.13;;;;;;;;;;5087168;28;20001;-69
2022/08/30 02:01:35;;;;;;;15.35;5.38;;;;;;;;;;5077803;28;20084;-68
2022/08/30 02:04:02;;;;;;;11.80;5.10;;;;;;;;;;5110790;27;20457;-68
2022/08/30 02:06:28;;;;;;;15.45;5.43;;;;;;;;;;5068172;28;20110;-69
2022/08/30 02:08:54;;;;;;;12.52;5.03;;;;;;;;;;5087771;28;20052;-69
2022/08/30 02:11:20;;;;;;;13.65;5.70;;;;;;;;;;5082116;28;20051;-68
2022/08/30 02:13:47;;;;;;;15.23;5.82;;;;;;;;;;5075790;28;20050;-69
2022/08/30 02:16:15;;;;;;;13.73;5.72;;;;;;;;;;5102958;28;20044;-69
2022/08/30 02:18:41;;;;;;;12.57;5.40;;;;;;;;;;5082985;28;20043;-68
2022/08/30 02:21:08;;;;;;;11.95;5.70;;;;;;;;;;5106644;28;20043;-69
2022/08/30 02:23:35;;;;;;;11.52;5.57;;;;;;;;;;5067991;28;20096;-73
2022/08/30 02:26:01;;;;;;;10.88;5.15;;;;;;;;;;5086059;28;20044;-69
2022/08/30 02:28:27;;;;;;;12.82;5.57;;;;;;;;;;5068026;28;20051;-69
2022/08/30 02:30:54;;;;;;;12.45;5.38;;;;;;;;;;5081984;28;20172;-69
2022/08/30 02:33:20;;;;;;;16.25;5.40;;;;;;;;;;5083017;28;20103;-69
2022/08/30 02:35:46;;;;;;;12.77;4.88;;;;;;;;;;5088589;28;20063;-68
2022/08/30 02:38:12;;;;;;;10.68;4.68;;;;;;;;;;5086327;28;20044;-73
2022/08/30 02:40:38;;;;;;;11.32;4.57;;;;;;;;;;5080248;28;20039;-69
2022/08/30 02:43:04;;;;;;;;;;;;;;;;;;5069202;28;20072;-69
2022/08/30 02:45:30;;;;;;;12.35;4.97;;;;;;;;;;5085931;28;19935;-69
2022/08/30 02:47:57;;;;;;;10.23;4.80;;;;;;;;;;5088733;28;20387;-69
2022/08/30 02:50:24;;;;;;;10.60;4.80;;;;;;;;;;5078812;28;20464;-69
2022/08/30 02:52:51;;;;;;;11.57;5.13;;;;;;;;;;5087558;28;20040;-69
2022/08/30 02:55:20;;;;;;;11.52;5.55;;;;;;;;;;5087521;28;20389;-69
2022/08/30 02:57:46;;;;;;;11.38;5.03;;;;;;;;;;5088024;28;20048;-69
2022/08/30 03:00:12;;;;;;;;;;;;;;;;;;5077246;28;20085;-70
2022/08/30 03:02:39;;;;;;;13.95;5.68;;;;;;;;;;5070624;28;19928;-69
2022/08/30 03:05:06;;;;;;;11.13;5.28;;;;;;;;;;5087547;28;20047;-68
2022/08/30 03:07:33;;;;;;;11.45;5.60;;;;;;;;;;5099098;28;20043;-69
2022/08/30 03:09:59;;;;;;;15.80;6.45;;;;;;;;;;5093442;28;20052;-69
2022/08/30 03:12:25;;;;;;;13.70;5.95;;;;;;;;;;5075466;28;20044;-68
2022/08/30 03:14:51;;;;;;;10.93;5.70;;;;;;;;;;5123378;27;20039;-69
2022/08/30 03:17:18;;;;;;;12.52;5.80;;;;;;;;;;5090096;28;20116;-69
2022/08/30 03:19:44;;;;;;;13.45;7.15;;;;;;;;;;5086793;28;20104;-68
2022/08/30 03:22:11;;;;;;;14.68;7.03;;;;;;;;;;5086628;28;20190;-69
2022/08/30 03:24:37;;;;;;;;;;;;;;;;;;5088242;28;20492;-69
2022/08/30 03:27:03;;;;;;;13.73;7.45;;;;;;;;;;5088075;28;19931;-68
2022/08/30 03:29:29;;;;;;;13.38;7.07;;;;;;;;;;5095314;28;20486;-68
2022/08/30 03:31:55;;;;;;;14.75;7.75;;;;;;;;;;5095172;28;20375;-68
2022/08/30 03:34:23;;;;;;;13.80;7.93;;;;;;;;;;5091403;28;20188;-68
2022/08/30 03:36:50;;;;;;;16.30;8.20;;;;;;;;;;5090774;28;20056;-68
2022/08/30 03:39:16;;;;;;;19.70;9.27;;;;;;;;;;5092431;28;20036;-71
2022/08/30 03:41:42;;;;;;;17.73;8.40;;;;;;;;;;5097956;28;20097;-68
2022/08/30 03:44:08;;;;;;;21.50;8.82;;;;;;;;;;5084743;28;20040;-68
2022/08/30 03:46:34;;;;;;;18.20;9.70;;;;;;;;;;5089387;28;20088;-74
2022/08/30 03:49:00;;;;;;;16.05;9.13;;;;;;;;;;5092279;28;20044;-68
2022/08/30 03:51:27;;;;;;;17.08;8.50;;;;;;;;;;5098048;28;20122;-68
2022/08/30 03:53:53;;;;;;;15.70;8.55;;;;;;;;;;5079688;28;21258;-69
2022/08/30 03:56:19;;;;;;;15.82;8.60;;;;;;;;;;5087963;28;20047;-68
2022/08/30 03:58:45;;;;;;;14.82;8.30;;;;;;;;;;5112500;28;20189;-68
2022/08/30 04:01:11;;;;;;;14.95;7.90;;;;;;;;;;5098194;28;20123;-68
2022/08/30 04:03:41;;;;;;;14.75;7.68;;;;;;;;;;5079145;28;20066;-69
2022/08/30 04:06:07;;;;;;;15.90;8.35;;;;;;;;;;5089225;28;20520;-68
2022/08/30 04:08:33;;;;;;;11.82;6.78;;;;;;;;;;5092165;28;20199;-68
2022/08/30 04:11:01;;;;;;;;;;;;;;;;;;5094294;28;20428;-72
2022/08/30 04:13:27;;;;;;;14.05;6.88;;;;;;;;;;5086578;28;20348;-72
2022/08/30 04:15:53;;;;;;;14.75;6.43;;;;;;;;;;5101660;28;20052;-68
2022/08/30 04:18:20;;;;;;;12.98;6.00;;;;;;;;;;5072270;28;20066;-68
2022/08/30 04:20:46;;;;;;;;;;;;;;;;;;5073081;28;20035;-68
2022/08/30 04:23:12;;;;;;;12.18;5.47;;;;;;;;;;5090529;28;20010;-68
2022/08/30 04:25:38;;;;;;;;;;;;;;;;;;5104458;28;20056;-69
2022/08/30 04:28:05;;;;;;;12.88;5.40;;;;;;;;;;5088631;28;20057;-68
2022/08/30 04:30:31;;;;;;;11.23;4.68;;;;;;;;;;5085904;28;20264;-68
2022/08/30 04:32:57;;;;;;;;;;;;;;;;;;5074388;28;20044;-69
2022/08/30 04:35:23;;;;;;;11.55;4.82;;;;;;;;;;5087241;28;20057;-68
2022/08/30 04:37:50;;;;;;;12.95;4.65;;;;;;;;;;5099184;28;20042;-68
2022/08/30 04:40:16;;;;;;;13.57;5.10;;;;;;;;;;5090185;28;20105;-68
2022/08/30 04:42:42;;;;;;;10.70;4.50;;;;;;;;;;5075853;28;20468;-73
2022/08/30 04:45:11;;;;;;;9.57;4.30;;;;;;;;;;5078586;28;20060;-70
2022/08/30 04:47:38;;;;;;;11.73;5.00;;;;;;;;;;5088888;28;20107;-68
2022/08/30 04:50:05;;;;;;;12.30;4.95;;;;;;;;;;5097864;28;20041;-68
2022/08/30 04:52:31;;;;;;;12.43;5.10;;;;;;;;;;5090696;28;20044;-71
2022/08/30 04:54:57;;;;;;;10.80;4.93;;;;;;;;;;5088531;28;20198;-68
2022/08/30 04:57:27;;;;;;;13.52;5.75;;;;;;;;;;5089078;28;20040;-68
2022/08/30 04:59:53;;;;;;;14.98;5.05;;;;;;;;;;5068574;28;20151;-70
2022/08/30 05:02:19;;;;;;;13.38;5.28;;;;;;;;;;5080345;28;20040;-68
2022/08/30 05:07:31;;;;;;;14.48;5.20;;;;;;;;;;5090718;28;20088;-70
2022/08/30 05:09:57;;;;;;;11.25;5.10;;;;;;;;;;5073643;28;20068;-72
2022/08/30 05:12:23;;;;;;;14.63;5.30;;;;;;;;;;5109730;27;20112;-69
2022/08/30 05:14:49;;;;;;;12.85;4.75;;;;;;;;;;5088600;28;20122;-68
2022/08/30 05:17:18;;;;;;;11.60;4.93;;;;;;;;;;5086350;28;20048;-67
2022/08/30 05:19:45;;;;;;;17.08;5.43;;;;;;;;;;5080903;28;20036;-68
2022/08/30 05:22:11;;;;;;;;;;;;;;;;;;5098574;28;20074;-69
2022/08/30 05:24:37;;;;;;;11.88;5.00;;;;;;;;;;5089138;28;19920;-68
2022/08/30 05:27:03;;;;;;;;;;;;;;;;;;5083471;28;20464;-66
2022/08/30 05:29:30;;;;;;;11.77;4.90;;;;;;;;;;5079618;28;19920;-67
2022/08/30 05:31:56;;;;;;;12.38;4.70;;;;;;;;;;5085052;28;20032;-68
2022/08/30 05:34:22;;;;;;;9.43;4.60;;;;;;;;;;5085601;28;20071;-67
2022/08/30 05:36:49;;;;;;;12.82;5.10;;;;;;;;;;5088870;28;20107;-73
2022/08/30 05:39:15;;;;;;;13.30;4.90;;;;;;;;;;5082678;28;20052;-67
2022/08/30 05:41:41;;;;;;;10.20;4.43;;;;;;;;;;5080331;28;20056;-67
2022/08/30 05:44:08;;;;;;;12.48;4.63;;;;;;;;;;5085999;28;20134;-67
2022/08/30 05:46:35;;;;;;;12.38;4.80;;;;;;;;;;5081730;28;20040;-67
2022/08/30 05:49:03;;;;;;;11.48;4.45;;;;;;;;;;5085863;28;21021;-67
2022/08/30 05:51:30;;;;;;;12.40;5.53;;;;;;;;;;5084899;28;20349;-68
2022/08/30 05:53:57;;;;;;;12.20;4.80;;;;;;;;;;5077867;28;20046;-67
2022/08/30 05:56:29;;;;;;;11.52;5.00;;;;;;;;;;5083030;28;20465;-67
2022/08/30 05:58:55;;;;;;;13.27;4.75;;;;;;;;;;5086064;28;20036;-67
2022/08/30 06:01:23;;;;;;;11.90;5.32;;;;;;;;;;5077427;28;20154;-67
2022/08/30 06:03:50;;;;;;;14.77;5.35;;;;;;;;;;5088030;28;20052;-67
2022/08/30 06:06:16;;;;;;;14.93;5.13;;;;;;;;;;5076547;28;20395;-67
2022/08/30 06:08:44;;;;;;;11.80;5.07;;;;;;;;;;5086949;28;20056;-68
2022/08/30 06:11:11;;;;;;;12.15;5.03;;;;;;;;;;5075501;28;20061;-68
2022/08/30 06:13:37;;;;;;;12.20;5.53;;;;;;;;;;5089001;28;20040;-69
2022/08/30 06:16:03;;;;;;;13.25;5.30;;;;;;;;;;5085923;28;20252;-66
2022/08/30 06:18:30;;;;;;;11.55;5.13;;;;;;;;;;5086758;28;20122;-68
2022/08/30 06:20:57;;;;;;;12.57;5.40;;;;;;;;;;5087519;28;20040;-68
2022/08/30 06:23:23;;;;;;;13.25;5.60;;;;;;;;;;5099367;28;20071;-68
2022/08/30 06:25:49;;;;;;;14.25;5.55;;;;;;;;;;5088631;28;20044;-69
2022/08/30 06:28:16;;;;;;;14.23;5.07;;;;;;;;;;5087974;28;20047;-68
2022/08/30 06:30:42;;;;;;;12.65;5.53;;;;;;;;;;5088308;28;20158;-68
2022/08/30 06:33:09;;;;;;;14.35;5.50;;;;;;;;;;5082160;28;20043;-67
2022/08/30 06:35:35;;;;;;;16.85;5.15;;;;;;;;;;5082153;28;20207;-67
2022/08/30 06:38:01;;;;;;;10.32;5.28;;;;;;;;;;5085279;28;20090;-67
2022/08/30 06:40:27;;;;;;;;;;;;;;;;;;5086956;28;20108;-67
2022/08/30 06:42:53;;;;;;;12.38;4.45;;;;;;;;;;5086606;28;19935;-68
2022/08/30 06:45:20;;;;;;;11.45;4.47;;;;;;;;;;5085656;28;20056;-67
2022/08/30 06:47:46;;;;;;;12.52;3.97;;;;;;;;;;5082585;28;20503;-69
2022/08/30 06:50:13;;;;;;;11.95;3.92;;;;;;;;;;5080763;28;20058;-69
2022/08/30 06:52:43;;;;;;;12.35;4.00;;;;;;;;;;5083080;28;20047;-68
2022/08/30 06:55:13;;;;;;;13.50;3.80;;;;;;;;;;5080409;28;20448;-69
2022/08/30 06:57:39;;;;;;;9.32;3.53;;;;;;;;;;5088459;28;20048;-68
2022/08/30 07:00:05;;;;;;;;;;;;;;;;;;5085517;28;20116;-70
2022/08/30 07:02:32;;;;;;;10.48;3.10;;;;;;;;;;5082448;28;20412;-69
2022/08/30 07:05:01;;;;;;;8.95;3.30;;;;;;;;;;5112638;28;20051;-71
2022/08/30 07:07:27;;;;;;;10.68;3.38;;;;;;;;;;5107235;28;20460;-67
2022/08/30 07:09:53;;;;;;;11.50;3.42;;;;;;;;;;5098370;28;20048;-69
2022/08/30 07:12:20;;;;;;;9.95;3.10;;;;;;;;;;5096793;28;20662;-67
2022/08/30 07:14:46;;;;;;;;;;;;;;;;;;5104346;28;20146;-69
2022/08/30 07:19:57;;;;;;;9.90;2.80;;;;;;;;;;5082921;28;20044;-67
2022/08/30 07:22:23;;;;;;;10.60;3.00;;;;;;;;;;5084100;28;20075;-68
2022/08/30 07:24:49;;;;;;;9.18;2.80;;;;;;;;;;5084980;28;20480;-67
2022/08/30 07:27:15;;;;;;;10.63;3.42;;;;;;;;;;5094665;28;20079;-68
2022/08/30 07:29:41;;;;;;;9.95;2.80;;;;;;;;;;5093802;28;20040;-69
2022/08/30 07:32:07;;;;;;;;;;;;;;;;;;5110397;28;20415;-66
2022/08/30 07:34:33;;;;;;;10.18;2.90;;;;;;;;;;5093994;28;19920;-70
2022/08/30 07:36:59;;;;;;;10.63;2.95;;;;;;;;;;5094753;28;20055;-71
2022/08/30 07:39:25;;;;;;;10.30;2.70;;;;;;;;;;5095866;28;20112;-67
2022/08/30 07:41:51;;;;;;;9.55;2.80;;;;;;;;;;5094632;28;20496;-72
2022/08/30 07:44:20;;;;;;;8.88;2.72;;;;;;;;;;5083865;28;20182;-70
2022/08/30 07:46:46;;;;;;;9.68;2.40;;;;;;;;;;5093380;28;20039;-68
2022/08/30 07:49:12;;;;;;;7.18;2.60;;;;;;;;;;5089445;28;20052;-69
2022/08/30 07:51:39;;;;;;;8.27;2.42;;;;;;;;;;5064371;28;20105;-69
2022/08/30 07:54:05;;;;;;;11.05;2.92;;;;;;;;;;5104643;28;20055;-72
2022/08/30 07:56:31;;;;;;;;;;;;;;;;;;5089750;28;20063;-70
2022/08/30 07:58:57;;;;;;;11.98;2.75;;;;;;;;;;5086327;28;20217;-70
2022/08/30 08:01:24;;;;;;;10.02;2.75;;;;;;;;;;5082853;28;20601;-71
2022/08/30 08:03:50;;;;;;;8.43;2.70;;;;;;;;;;5086324;28;20525;-71
2022/08/30 08:06:18;;;;;;;7.50;2.40;;;;;;;;;;5090032;28;20405;-71
2022/08/30 08:08:46;;;;;;;4.95;2.00;;;;;;;;;;5091048;28;20047;-71
2022/08/30 08:11:14;;;;;;;8.93;2.30;;;;;;;;;;5090546;28;20183;-69
2022/08/30 08:13:41;;;;;;;8.75;2.40;;;;;;;;;;5099211;28;20054;-76
2022/08/30 08:16:07;;;;;;;8.18;2.38;;;;;;;;;;5093738;28;20055;-79
2022/08/30 08:18:33;;;;;;;9.68;2.15;;;;;;;;;;5094262;28;20058;-70
2022/08/30 08:21:00;;;;;;;10.38;2.50;;;;;;;;;;5091404;28;20036;-68
2022/08/30 08:23:26;;;;;;;10.27;2.20;;;;;;;;;;5083374;28;20091;-69
2022/08/30 08:25:52;;;;;;;;;;;;;;;;;;5092989;28;20415;-67
2022/08/30 08:28:19;;;;;;;10.30;2.50;;;;;;;;;;5100081;28;20020;-67
2022/08/30 08:30:45;;;;;;;7.28;2.33;;;;;;;;;;5094528;28;20039;-66
2022/08/30 08:33:12;;;;;;;7.80;2.28;;;;;;;;;;5092454;28;20043;-69
2022/08/30 08:35:39;;;;;;;9.90;2.30;;;;;;;;;;5095802;28;20146;-68
2022/08/30 08:38:05;;;;;;;7.80;2.30;;;;;;;;;;5090004;28;20047;-67
2022/08/30 08:40:31;;;;;;;;;;;;;;;;;;5084772;28;20076;-66
2022/08/30 08:43:02;;;;;;;6.90;2.03;;;;;;;;;;5090709;28;19982;-68
2022/08/30 08:45:28;;;;;;;9.43;2.60;;;;;;;;;;5093586;28;20036;-66
2022/08/30 08:47:54;;;;;;;10.43;2.30;;;;;;;;;;5089649;28;20052;-66
2022/08/30 08:50:22;;;;;;;6.70;2.15;;;;;;;;;;5088160;28;20397;-70
2022/08/30 08:55:42;;;;;;;9.82;2.72;;;;;;;;;;5095162;28;20075;-70
2022/08/30 08:58:14;;;;;;;9.52;2.35;;;;;;;;;;5105185;28;20044;-66
2022/08/30 09:00:40;;;;;;;9.25;2.28;;;;;;;;;;5097743;28;20051;-67
2022/08/30 09:03:09;;;;;;;10.68;2.20;;;;;;;;;;5089153;28;20392;-67
2022/08/30 09:05:37;;;;;;;9.88;2.70;;;;;;;;;;5088320;28;20121;-66
2022/08/30 09:08:05;;;;;;;7.20;2.30;;;;;;;;;;5109472;28;20562;-67
2022/08/30 09:10:32;;;;;;;6.95;2.10;;;;;;;;;;5102994;28;20254;-68
2022/08/30 09:13:00;;;;;;;9.82;2.45;;;;;;;;;;5081655;28;20104;-68
2022/08/30 09:15:31;;;;;;;7.25;2.30;;;;;;;;;;5087230;28;20044;-66
2022/08/30 09:18:05;;;;;;;9.38;2.33;;;;;;;;;;5074871;28;20100;-70
2022/08/30 09:20:34;;;;;;;8.10;2.35;;;;;;;;;;5089654;28;20048;-68
2022/08/30 09:23:11;;;;;;;8.50;2.50;;;;;;;;;;5095567;28;20044;-66
2022/08/30 09:25:37;;;;;;;7.88;2.50;;;;;;;;;;5097135;28;20051;-66
2022/08/30 09:28:11;;;;;;;8.05;2.45;;;;;;;;;;5092126;28;20140;-68
2022/08/30 09:30:37;;;;;;;6.88;2.22;;;;;;;;;;5086740;28;20048;-70
2022/08/30 09:33:17;;;;;;;7.88;2.25;;;;;;;;;;5092142;28;20119;-66
2022/08/30 09:35:48;;;;;;;7.85;2.33;;;;;;;;;;5087833;28;20055;-67
2022/08/30 09:38:20;;;;;;;9.60;2.42;;;;;;;;;;5117122;27;20055;-66
2022/08/30 09:40:46;;;;;;;7.00;2.28;;;;;;;;;;5098615;28;20051;-67
2022/08/30 09:43:15;;;;;;;9.98;2.38;;;;;;;;;;5107646;28;20157;-68
2022/08/30 09:45:43;;;;;;;7.97;2.22;;;;;;;;;;5084340;28;20123;-68
2022/08/30 09:48:45;;;;;;;7.43;2.42;;;;;;;;;;5089666;28;20074;-67
2022/08/30 09:51:11;;;;;;;6.88;2.33;;;;;;;;;;5042370;28;20398;-69
2022/08/30 09:54:04;;;;;;;7.45;2.30;;;;;;;;;;5079158;28;20270;-67
2022/08/30 09:56:36;;;;;;;7.28;2.10;;;;;;;;;;5090969;28;20043;-65
2022/08/30 09:59:14;;;;;;;7.68;2.30;;;;;;;;;;5092208;28;20120;-71
2022/08/30 10:01:46;;;;;;;15.32;2.92;;;;;;;;;;5092467;28;20059;-67
2022/08/30 10:04:23;;;;;;;7.07;2.22;;;;;;;;;;5075766;28;20234;-71
2022/08/30 10:06:51;;;;;;;8.05;2.40;;;;;;;;;;5088661;28;20044;-68
2022/08/30 10:09:40;;;;;;;9.73;2.20;;;;;;;;;;5088956;28;20128;-66
2022/08/30 10:12:30;;;;;;;7.07;2.13;;;;;;;;;;5100722;28;20424;-67
2022/08/30 10:14:56;;;;;;;4.43;1.80;;;;;;;;;;5106951;28;20092;-67
2022/08/30 10:17:28;;;;;;;6.55;1.95;;;;;;;;;;5107219;28;20475;-66
2022/08/30 10:20:06;;;;;;;6.35;2.15;;;;;;;;;;5089230;28;20044;-69
2022/08/30 10:23:02;;;;;;;7.95;2.30;;;;;;;;;;5088649;28;20040;-68
2022/08/30 10:25:53;;;;;;;8.98;2.33;;;;;;;;;;5080481;28;20129;-67
2022/08/30 10:28:27;;;;;;;7.53;2.13;;;;;;;;;;5086496;28;20055;-68
2022/08/30 10:30:58;;;;;;;10.77;2.55;;;;;;;;;;5093360;28;20079;-67
2022/08/30 10:33:25;;;;;;;8.40;2.10;;;;;;;;;;5090838;28;20193;-70
2022/08/30 10:35:56;;;;;;;7.03;2.03;;;;;;;;;;5085127;28;20139;-67
2022/08/30 10:38:55;;;;;;;10.18;2.20;;;;;;;;;;5076164;28;20044;-69
2022/08/30 10:41:27;;;;;;;8.05;2.35;;;;;;;;;;5071817;28;20059;-67
2022/08/30 10:44:02;;;;;;;8.23;1.90;;;;;;;;;;5090710;28;20052;-66
2022/08/30 10:46:40;;;;;;;8.52;2.00;;;;;;;;;;5077097;28;20123;-67
2022/08/30 10:49:10;;;;;;;5.40;1.80;;;;;;;;;;5098962;28;20086;-67
2022/08/30 10:51:57;;;;;;;8.05;1.92;;;;;;;;;;5091243;28;20412;-68
2022/08/30 10:54:27;;;;;;;6.07;1.85;;;;;;;;;;5073897;28;20147;-68
2022/08/30 10:56:54;;;;;;;8.07;1.92;;;;;;;;;;5096504;28;20066;-66
2022/08/30 10:59:20;;;;;;;7.93;2.30;;;;;;;;;;5094489;28;20052;-64
2022/08/30 11:01:49;;;;;;;9.45;2.83;;;;;;;;;;5088156;28;20472;-66
2022/08/30 11:04:22;;;;;;;6.20;1.83;;;;;;;;;;5089703;28;20048;-65
2022/08/30 11:07:01;;;;;;;7.43;1.98;;;;;;;;;;5089479;28;20093;-65
2022/08/30 11:09:33;;;;;;;5.82;1.88;;;;;;;;;;5098781;28;20050;-68
2022/08/30 11:12:18;;;;;;;11.05;2.10;;;;;;;;;;5075089;28;20040;-67
2022/08/30 11:14:45;;;;;;;7.45;2.35;;;;;;;;;;5084341;28;20157;-64
2022/08/30 11:17:25;;;;;;;13.23;2.20;;;;;;;;;;5088670;28;20452;-65
2022/08/30 11:19:53;;;;;;;5.97;1.80;;;;;;;;;;5083840;28;20062;-66
2022/08/30 11:22:21;;;;;;;7.68;2.00;;;;;;;;;;5088994;28;20106;-64
2022/08/30 11:25:00;;;;;;;6.88;2.00;;;;;;;;;;5081081;28;20106;-65
2022/08/30 11:27:58;;;;;;;7.95;2.03;;;;;;;;;;5080247;28;20435;-66
2022/08/30 11:30:24;;;;;;;7.63;2.10;;;;;;;;;;5048130;28;20503;-65
2022/08/30 11:32:50;;;;;;;;;;;;;;;;;;5087682;28;20031;-65
2022/08/30 11:35:34;;;;;;;6.45;1.85;;;;;;;;;;5110318;28;19920;-66
2022/08/30 11:38:00;;;;;;;7.10;2.10;;;;;;;;;;5103577;28;20046;-66
2022/08/30 11:40:27;;;;;;;10.60;2.20;;;;;;;;;;5113597;28;20040;-65
2022/08/30 11:42:54;;;;;;;8.70;1.98;;;;;;;;;;5081740;28;20047;-67
2022/08/30 11:45:26;;;;;;;9.68;2.20;;;;;;;;;;5092512;28;20040;-64
2022/08/30 11:47:52;;;;;;;7.15;2.10;;;;;;;;;;5106918;28;20052;-63
2022/08/30 11:50:19;;;;;;;;;;;;;;;;;;5092225;28;20126;-64
2022/08/30 11:52:45;;;;;;;8.00;2.15;;;;;;;;;;5086506;28;20296;-68
2022/08/30 11:55:11;;;;;;;7.10;2.08;;;;;;;;;;5092045;28;20127;-69
2022/08/30 11:57:37;;;;;;;;;;;;;;;;;;5091472;28;20123;-69
2022/08/30 12:00:24;;;;;;;7.43;1.92;;;;;;;;;;5089273;28;19920;-69
2022/08/30 12:02:57;;;;;;;6.78;2.05;;;;;;;;;;5078012;28;20075;-68
2022/08/30 12:05:38;;;;;;;15.23;2.67;;;;;;;;;;5088601;28;20048;-69
2022/08/30 12:08:09;;;;;;;16.83;2.55;;;;;;;;;;5093010;28;20128;-67
2022/08/30 12:10:45;;;;;;;9.35;2.10;;;;;;;;;;5089787;28;20412;-69
2022/08/30 12:13:30;;;;;;;11.02;2.55;;;;;;;;;;5106945;28;20050;-70
2022/08/30 12:16:10;;;;;;;16.13;2.50;;;;;;;;;;5082614;28;20063;-68
2022/08/30 12:18:39;;;;;;;8.55;2.15;;;;;;;;;;5092453;28;20367;-76
2022/08/30 12:21:12;;;;;;;7.35;1.90;;;;;;;;;;5112514;28;20043;-68
2022/08/30 12:23:47;;;;;;;6.68;2.00;;;;;;;;;;5090585;28;20045;-68
2022/08/30 12:26:14;;;;;;;6.68;1.88;;;;;;;;;;5072002;28;20064;-66
2022/08/30 12:28:41;;;;;;;6.15;1.90;;;;;;;;;;5088163;28;20054;-67
2022/08/30 12:31:13;;;;;;;7.63;2.20;;;;;;;;;;5076982;28;20063;-67
2022/08/30 12:33:44;;;;;;;8.10;2.20;;;;;;;;;;5071806;28;20526;-68
2022/08/30 12:36:15;;;;;;;8.30;2.15;;;;;;;;;;5075359;28;20352;-68
2022/08/30 12:38:41;;;;;;;9.32;2.28;;;;;;;;;;5098630;28;20039;-67
2022/08/30 12:41:07;;;;;;;8.20;2.03;;;;;;;;;;5109172;28;20124;-68
2022/08/30 12:43:35;;;;;;;8.18;2.10;;;;;;;;;;5101271;28;20070;-67
2022/08/30 12:46:05;;;;;;;7.95;2.53;;;;;;;;;;5093804;28;20064;-68
2022/08/30 12:48:37;;;;;;;9.10;2.42;;;;;;;;;;5091586;28;20128;-64
2022/08/30 12:51:03;;;;;;;7.80;2.10;;;;;;;;;;5090537;28;20056;-66
2022/08/30 12:53:40;;;;;;;8.07;2.22;;;;;;;;;;5082875;28;20076;-63
2022/08/30 12:56:11;;;;;;;7.38;1.90;;;;;;;;;;5111553;28;20488;-65
2022/08/30 12:58:48;;;;;;;10.20;2.28;;;;;;;;;;5107545;28;20067;-64
2022/08/30 13:01:28;;;;;;;8.18;2.00;;;;;;;;;;5084416;28;20051;-67
2022/08/30 13:03:55;;;;;;;7.28;2.22;;;;;;;;;;5089129;28;20491;-66
2022/08/30 13:06:37;;;;;;;7.97;2.42;;;;;;;;;;5094141;28;20364;-67
2022/08/30 13:09:03;;;;;;;21.00;13.88;;;;;;;;;;5086790;28;20044;-63
2022/08/30 13:11:29;;;;;;;16.98;8.10;;;;;;;;;;5101785;28;20124;-67
2022/08/30 13:13:59;;;;;;;7.38;2.25;;;;;;;;;;5111504;28;20051;-69
2022/08/30 13:16:27;;;;;;;22.00;13.50;;;;;;;;;;5094610;28;20127;-66
2022/08/30 13:18:54;;;;;;;11.45;5.18;;;;;;;;;;5108658;27;20036;-66
2022/08/30 13:21:23;;;;;;;10.05;3.83;;;;;;;;;;5097813;28;20047;-66
2022/08/30 13:23:51;;;;;;;9.23;2.67;;;;;;;;;;5077567;28;20452;-66
2022/08/30 13:26:17;;;;;;;10.77;2.70;;;;;;;;;;5104734;28;20055;-67
2022/08/30 13:28:43;;;;;;;6.82;2.50;;;;;;;;;;5110048;28;20391;-66
2022/08/30 13:31:09;;;;;;;;;;;;;;;;;;5111039;28;20070;-65
2022/08/30 13:33:35;;;;;;;9.93;2.42;;;;;;;;;;5087316;28;19920;-70
2022/08/30 13:36:04;;;;;;;7.03;2.13;;;;;;;;;;5088963;28;20046;-69
2022/08/30 13:38:30;;;;;;;7.10;2.03;;;;;;;;;;5093972;28;20086;-66
2022/08/30 13:40:56;;;;;;;;;;;;;;;;;;5096551;28;20040;-69
2022/08/30 13:43:23;;;;;;;5.90;1.98;;;;;;;;;;5110796;28;19920;-68
2022/08/30 13:45:48;;;;;;;;;;;;;;;;;;5086865;28;20067;-65
2022/08/30 13:48:15;;;;;;;6.43;2.20;;;;;;;;;;5108645;28;19986;-66
2022/08/30 13:50:41;;;;;;;;;;;;;;;;;;5105359;28;20225;-67
2022/08/30 13:53:07;;;;;;;;;;;;;;;;;;5090204;28;20098;-67
2022/08/30 13:55:33;;;;;;;;;;;;;;;;;;5077541;28;19920;-66
2022/08/30 13:57:59;;;;;;;;;;;;;;;;;;5089172;28;19920;-68
2022/08/30 14:00:25;;;;;;;;;;;;;;;;;;5092328;28;19936;-69
2022/08/30 14:02:54;;;;;;;;;;;;;;;;;;5110222;28;19926;-67
2022/08/30 14:05:20;;;;;;;;;;;;;;;;;;5094423;28;20056;-68
2022/08/30 14:07:49;;;;;;;;;;;;;;;;;;5089193;28;20336;-73
2022/08/30 14:10:15;;;;;;;;;;;;;;;;;;5088729;28;19927;-67
2022/08/30 14:12:41;;;;;;;;;;;;;;;;;;5091554;28;20429;-68
2022/08/30 14:15:07;;;;;;;;;;;;;;;;;;5089185;28;19924;-68
2022/08/30 14:17:34;;;;;;;;;;;;;;;;;;5086506;28;19948;-67
2022/08/30 14:20:00;;;;;;;;;;;;;;;;;;5089512;28;19919;-68
2022/08/30 14:22:26;;;;;;;;;;;;;;;;;;5087772;28;19958;-69
2022/08/30 14:24:53;;;;;;;;;;;;;;;;;;5089168;28;20363;-68
2022/08/30 14:27:19;;;;;;;;;;;;;;;;;;5088941;28;20289;-65
2022/08/30 14:29:45;;;;;;;;;;;;;;;;;;5101946;28;20336;-67
2022/08/30 14:32:13;;;;;;;;;;;;;;;;;;5090063;28;20377;-66
2022/08/30 14:34:39;;;;;;;;;;;;;;;;;;5077578;28;19921;-69
2022/08/30 14:37:05;;;;;;;;;;;;;;;;;;5114688;27;20381;-68
2022/08/30 14:39:31;;;;;;;;;;;;;;;;;;5110271;28;19971;-68
2022/08/30 14:41:57;;;;;;;;;;;;;;;;;;5090400;28;19924;-68
2022/08/30 14:44:23;;;;;;;;;;;;;;;;;;5087347;28;19926;-68
2022/08/30 14:46:49;;;;;;;;;;;;;;;;;;5092185;28;19924;-69
2022/08/30 14:49:15;;;;;;;;;;;;;;;;;;5097262;28;20351;-69
2022/08/30 14:51:50;;;;;;;;;;;;;;;;;;5090588;28;20269;-69
2022/08/30 14:54:16;;;;;;;;;;;;;;;;;;5071474;28;20364;-69
2022/08/30 14:56:42;;;;;;;;;;;;;;;;;;5105473;28;20014;-65
2022/08/30 14:59:08;;;;;;;;;;;;;;;;;;5098300;28;20485;-66
2022/08/30 15:01:34;;;;;;;;;;;;;;;;;;5089227;28;19976;-68
2022/08/30 15:04:01;;;;;;;;;;;;;;;;;;5088241;28;19920;-66
2022/08/30 15:06:27;;;;;;;;;;;;;;;;;;5084353;28;19977;-66
2022/08/30 15:08:57;;;;;;;;;;;;;;;;;;5087535;28;20352;-69
2022/08/30 15:11:24;;;;;;;;;;;;;;;;;;5086067;28;19924;-67